Time;durP1;ratioP1;P1;durP2;ratioP2;P2;SDS_P1;SDS_P2;PMS_P1;PMS_P2;Temp;Humidity;BMP_temperature;BMP_pressure;BME280_temperature;BME280_humidity;BME280_pressure;Samples;Min_cycle;Max_cycle;Signal;HPM_P1;HPM_P2
2021/02/18 00:01:29;;;;;;;1.6;1.1;;;;;;;;;;;;;
2021/02/18 00:03:54;;;;;;;1.9;0.7;;;;;;;;;;;;;
2021/02/18 00:06:20;;;;;;;2.4;1.2;;;;;;;;;;;;;
2021/02/18 00:08:45;;;;;;;1.2;0.8;;;;;;;;;;;;;
2021/02/18 00:11:18;;;;;;;2.4;1.2;;;;;;;;;;;;;
2021/02/18 00:13:49;;;;;;;1.1;1;;;;;;;;;;;;;
2021/02/18 00:16:22;;;;;;;2.9;1.9;;;;;;;;;;;;;
2021/02/18 00:18:49;;;;;;;1.8;1.1;;;;;;;;;;;;;
2021/02/18 00:21:14;;;;;;;7.3;1.9;;;;;;;;;;;;;
2021/02/18 00:23:43;;;;;;;3;1.2;;;;;;;;;;;;;
2021/02/18 00:26:12;;;;;;;1.8;1.2;;;;;;;;;;;;;
2021/02/18 00:28:38;;;;;;;2.4;1.5;;;;;;;;;;;;;
2021/02/18 00:31:03;;;;;;;3.9;1.9;;;;;;;;;;;;;
2021/02/18 00:33:28;;;;;;;1.3;1.2;;;;;;;;;;;;;
2021/02/18 00:35:58;;;;;;;2.8;1.3;;;;;;;;;;;;;
2021/02/18 00:38:24;;;;;;;1.8;1.6;;;;;;;;;;;;;
2021/02/18 00:40:49;;;;;;;2.9;1.8;;;;;;;;;;;;;
2021/02/18 00:43:14;;;;;;;1.9;1.4;;;;;;;;;;;;;
2021/02/18 00:45:40;;;;;;;1.2;1.1;;;;;;;;;;;;;
2021/02/18 00:48:05;;;;;;;1.8;1.4;;;;;;;;;;;;;
2021/02/18 00:50:31;;;;;;;1.9;1.2;;;;;;;;;;;;;
2021/02/18 00:52:56;;;;;;;2.1;1.4;;;;;;;;;;;;;
2021/02/18 00:55:22;;;;;;;1.5;1.1;;;;;;;;;;;;;
2021/02/18 00:57:47;;;;;;;1.7;1.2;;;;;;;;;;;;;
2021/02/18 01:00:16;;;;;;;1.6;1;;;;;;;;;;;;;
2021/02/18 01:02:41;;;;;;;1.5;0.7;;;;;;;;;;;;;
2021/02/18 01:05:06;;;;;;;2;0.6;;;;;;;;;;;;;
2021/02/18 01:07:32;;;;;;;1.7;1.2;;;;;;;;;;;;;
2021/02/18 01:09:57;;;;;;;1.6;0.8;;;;;;;;;;;;;
2021/02/18 01:12:22;;;;;;;2.2;1.5;;;;;;;;;;;;;
2021/02/18 01:14:49;;;;;;;1.2;0.8;;;;;;;;;;;;;
2021/02/18 01:17:14;;;;;;;2.5;1.4;;;;;;;;;;;;;
2021/02/18 01:19:41;;;;;;;2.5;1.4;;;;;;;;;;;;;
2021/02/18 01:22:07;;;;;;;0.9;0.9;;;;;;;;;;;;;
2021/02/18 01:24:35;;;;;;;1.3;1;;;;;;;;;;;;;
2021/02/18 01:27:00;;;;;;;1.1;0.7;;;;;;;;;;;;;
2021/02/18 01:29:28;;;;;;;1.5;1.2;;;;;;;;;;;;;
2021/02/18 01:31:54;;;;;;;0.5;0.5;;;;;;;;;;;;;
2021/02/18 01:34:20;;;;;;;1.9;1.1;;;;;;;;;;;;;
2021/02/18 01:36:45;;;;;;;1.2;0.9;;;;;;;;;;;;;
2021/02/18 01:39:10;;;;;;;1.4;1.1;;;;;;;;;;;;;
2021/02/18 01:41:35;;;;;;;1.1;0.8;;;;;;;;;;;;;
2021/02/18 01:44:04;;;;;;;1.6;1.1;;;;;;;;;;;;;
2021/02/18 01:46:33;;;;;;;1.5;0.8;;;;;;;;;;;;;
2021/02/18 01:48:58;;;;;;;5.3;1.3;;;;;;;;;;;;;
2021/02/18 01:51:25;;;;;;;1.9;1;;;;;;;;;;;;;
2021/02/18 01:53:50;;;;;;;0.8;0.8;;;;;;;;;;;;;
2021/02/18 01:56:16;;;;;;;0.5;0.5;;;;;;;;;;;;;
2021/02/18 01:58:41;;;;;;;0.6;0.6;;;;;;;;;;;;;
2021/02/18 02:01:09;;;;;;;0.6;0.6;;;;;;;;;;;;;
2021/02/18 02:03:34;;;;;;;1.1;0.7;;;;;;;;;;;;;
2021/02/18 02:05:59;;;;;;;0.5;0.5;;;;;;;;;;;;;
2021/02/18 02:08:24;;;;;;;1;0.6;;;;;;;;;;;;;
2021/02/18 02:10:50;;;;;;;0.8;0.8;;;;;;;;;;;;;
2021/02/18 02:13:16;;;;;;;1.6;0.8;;;;;;;;;;;;;
2021/02/18 02:15:48;;;;;;;0.7;0.7;;;;;;;;;;;;;
2021/02/18 02:18:17;;;;;;;0.7;0.7;;;;;;;;;;;;;
2021/02/18 02:20:45;;;;;;;0.7;0.7;;;;;;;;;;;;;
2021/02/18 02:23:11;;;;;;;1.1;0.9;;;;;;;;;;;;;
2021/02/18 02:25:36;;;;;;;1.2;0.8;;;;;;;;;;;;;
2021/02/18 02:28:01;;;;;;;3.3;0.8;;;;;;;;;;;;;
2021/02/18 02:30:27;;;;;;;1.1;0.9;;;;;;;;;;;;;
2021/02/18 02:32:52;;;;;;;2.6;0.8;;;;;;;;;;;;;
2021/02/18 02:35:17;;;;;;;0.8;0.6;;;;;;;;;;;;;
2021/02/18 02:37:43;;;;;;;0.7;0.7;;;;;;;;;;;;;
2021/02/18 02:40:09;;;;;;;1.3;0.9;;;;;;;;;;;;;
2021/02/18 02:42:34;;;;;;;1.1;1;;;;;;;;;;;;;
2021/02/18 02:45:01;;;;;;;6.3;1.4;;;;;;;;;;;;;
2021/02/18 02:47:26;;;;;;;6.2;1.7;;;;;;;;;;;;;
2021/02/18 02:49:54;;;;;;;0.7;0.7;;;;;;;;;;;;;
2021/02/18 02:52:19;;;;;;;2.2;0.9;;;;;;;;;;;;;
2021/02/18 02:54:44;;;;;;;0.8;0.7;;;;;;;;;;;;;
2021/02/18 02:57:09;;;;;;;1.3;0.7;;;;;;;;;;;;;
2021/02/18 02:59:36;;;;;;;8.6;0.7;;;;;;;;;;;;;
2021/02/18 03:09:31;;;;;;;0.8;0.8;;;;;;;;;;;;;
2021/02/18 03:11:57;;;;;;;0.9;0.6;;;;;;;;;;;;;
2021/02/18 03:14:23;;;;;;;0.5;0.5;;;;;;;;;;;;;
2021/02/18 03:16:51;;;;;;;0.7;0.7;;;;;;;;;;;;;
2021/02/18 03:19:20;;;;;;;0.9;0.7;;;;;;;;;;;;;
2021/02/18 03:21:45;;;;;;;0.6;0.6;;;;;;;;;;;;;
2021/02/18 03:24:11;;;;;;;1.1;0.6;;;;;;;;;;;;;
2021/02/18 03:26:36;;;;;;;0.9;0.5;;;;;;;;;;;;;
2021/02/18 03:29:02;;;;;;;0.7;0.6;;;;;;;;;;;;;
2021/02/18 03:31:27;;;;;;;1;0.6;;;;;;;;;;;;;
2021/02/18 03:33:53;;;;;;;0.4;0.4;;;;;;;;;;;;;
2021/02/18 03:36:18;;;;;;;0.4;0.4;;;;;;;;;;;;;
2021/02/18 03:38:44;;;;;;;0.5;0.5;;;;;;;;;;;;;
2021/02/18 03:41:09;;;;;;;1.7;0.7;;;;;;;;;;;;;
2021/02/18 03:43:35;;;;;;;1.1;0.6;;;;;;;;;;;;;
2021/02/18 03:46:01;;;;;;;2;0.5;;;;;;;;;;;;;
2021/02/18 03:48:27;;;;;;;1.1;0.9;;;;;;;;;;;;;
2021/02/18 03:50:52;;;;;;;0.8;0.6;;;;;;;;;;;;;
2021/02/18 03:53:20;;;;;;;0.8;0.7;;;;;;;;;;;;;
2021/02/18 03:55:44;;;;;;;1.2;0.7;;;;;;;;;;;;;
2021/02/18 03:58:09;;;;;;;1.5;1.1;;;;;;;;;;;;;
2021/02/18 04:02:36;;;;;;;1.6;0.8;;;;;;;-0.42;89.33887;940.1841;;;;
2021/02/18 04:05:12;;;;;;;1.2;1.1;;;;;;;-0.26;88.64746;940.1184;;;;
2021/02/18 04:07:37;;;;;;;1.5;1.2;;;;;;;-0.43;88.32422;940.0875;;;;
2021/02/18 04:10:12;;;;;;;0.8;0.7;;;;;;;-0.47;88.62598;939.9611;;;;
2021/02/18 04:12:37;;;;;;;1.8;1.1;;;;;;;-0.33;87.73242;939.9836;;;;
2021/02/18 04:15:02;;;;;;;0.8;0.7;;;;;;;-0.51;88.56055;939.9791;;;;
2021/02/18 04:17:35;;;;;;;2.1;0.8;;;;;;;-0.45;88.33105;940.0497;;;;
2021/02/18 04:20:09;;;;;;;1.8;0.8;;;;;;;-0.5;88.87598;939.9883;;;;
2021/02/18 04:22:43;;;;;;;1.2;0.9;;;;;;;-0.45;88.77637;939.8964;;;;
2021/02/18 04:25:16;;;;;;;1.3;0.7;;;;;;;-0.37;88.24805;939.8478;;;;
2021/02/18 04:27:48;;;;;;;0.8;0.7;;;;;;;-0.43;88.3125;939.8803;;;;
2021/02/18 04:30:20;;;;;;;1;0.9;;;;;;;-0.53;88.45898;939.8328;;;;
2021/02/18 04:32:45;;;;;;;0.6;0.6;;;;;;;-0.56;88.22852;939.7692;;;;
2021/02/18 04:35:18;;;;;;;0.5;0.5;;;;;;;-0.63;88.19336;939.8489;;;;
2021/02/18 04:37:44;;;;;;;0.9;0.7;;;;;;;-0.71;88.49902;939.8064;;;;
2021/02/18 04:40:17;;;;;;;1.8;0.9;;;;;;;-0.66;88.45313;939.8489;;;;
2021/02/18 04:42:42;;;;;;;0.7;0.6;;;;;;;-0.53;88.39258;939.8656;;;;
2021/02/18 04:45:16;;;;;;;1.7;0.8;;;;;;;-0.4;87.72852;939.8191;;;;
2021/02/18 04:47:48;;;;;;;1.2;1.1;;;;;;;-0.44;88.08789;939.8234;;;;
2021/02/18 04:50:14;;;;;;;3.6;1.5;;;;;;;-0.24;87.75098;939.8318;;;;
2021/02/18 04:52:39;;;;;;;1.7;1.3;;;;;;;-0.16;86.78613;939.8439;;;;
2021/02/18 04:55:10;;;;;;;1;0.9;;;;;;;-0.39;88.16504;939.8427;;;;
2021/02/18 04:57:38;;;;;;;1.2;0.8;;;;;;;-0.31;88.10547;939.851;;;;
2021/02/18 05:00:03;;;;;;;1.2;1;;;;;;;-0.23;87.80859;939.7986;;;;
2021/02/18 05:02:28;;;;;;;4.3;1;;;;;;;-0.32;87.24512;939.7814;;;;
2021/02/18 05:04:56;;;;;;;1;0.9;;;;;;;-0.37;87.31348;939.7506;;;;
2021/02/18 05:07:22;;;;;;;0.7;0.7;;;;;;;-0.39;87.2627;939.7645;;;;
2021/02/18 05:09:52;;;;;;;1.5;1.1;;;;;;;-0.49;87.43359;939.7357;;;;
2021/02/18 05:12:27;;;;;;;1.1;0.8;;;;;;;-0.35;87.07227;939.6959;;;;
2021/02/18 05:14:54;;;;;;;0.9;0.7;;;;;;;-0.43;86.64355;939.6674;;;;
2021/02/18 05:17:21;;;;;;;0.7;0.7;;;;;;;-0.37;85.3418;939.6558;;;;
2021/02/18 05:19:57;;;;;;;1.2;0.7;;;;;;;-0.39;85.39355;939.5705;;;;
2021/02/18 05:22:29;;;;;;;2.2;1.3;;;;;;;-0.44;85.62891;939.7162;;;;
2021/02/18 05:25:10;;;;;;;3.6;1.8;;;;;;;-0.4;85.7832;939.718;;;;
2021/02/18 05:27:40;;;;;;;2.1;1.2;;;;;;;-0.31;85.58789;939.7109;;;;
2021/02/18 05:30:13;;;;;;;2.6;1.3;;;;;;;-0.48;86.42285;939.6462;;;;
2021/02/18 05:32:45;;;;;;;2.2;1.6;;;;;;;-0.64;87.16602;939.6983;;;;
2021/02/18 05:35:12;;;;;;;1.2;1;;;;;;;-0.6;86.76367;939.5475;;;;
2021/02/18 05:37:43;;;;;;;1.6;0.9;;;;;;;-0.51;85.82715;939.6908;;;;
2021/02/18 05:40:22;;;;;;;0.5;0.5;;;;;;;-0.29;84.7793;939.6387;;;;
2021/02/18 05:42:48;;;;;;;1.9;0.9;;;;;;;-0.36;83.82031;939.6575;;;;
2021/02/18 05:45:30;;;;;;;3;0.7;;;;;;;-0.36;83.59766;939.6284;;;;
2021/02/18 05:48:08;;;;;;;2.3;1.1;;;;;;;-0.31;83.01855;939.6132;;;;
2021/02/18 05:50:33;;;;;;;0.8;0.7;;;;;;;-0.4;83.42188;939.6899;;;;
2021/02/18 05:53:11;;;;;;;0.6;0.6;;;;;;;-0.06;81.66113;939.6948;;;;
2021/02/18 05:55:42;;;;;;;0.9;0.6;;;;;;;-0.03;80.37793;939.6873;;;;
2021/02/18 05:58:09;;;;;;;0.5;0.5;;;;;;;0.05;80.45703;939.688;;;;
2021/02/18 06:00:46;;;;;;;1.2;1.1;;;;;;;0.33;79.31934;939.7486;;;;
2021/02/18 06:03:21;;;;;;;3.2;1.4;;;;;;;0.08;79.8291;939.6545;;;;
2021/02/18 06:05:57;;;;;;;4.4;2.5;;;;;;;-0.62;83.49902;939.7838;;;;
2021/02/18 06:08:33;;;;;;;5.1;2.2;;;;;;;-0.29;82.51953;939.7714;;;;
2021/02/18 06:10:59;;;;;;;3.7;2.5;;;;;;;-0.55;83.88086;939.822;;;;
2021/02/18 06:13:37;;;;;;;3.6;1.7;;;;;;;-0.65;84.14063;939.7753;;;;
2021/02/18 06:16:17;;;;;;;2.3;1.3;;;;;;;-0.63;83.7666;939.8248;;;;
2021/02/18 06:18:55;;;;;;;3.3;2.2;;;;;;;-0.56;83.69043;939.845;;;;
2021/02/18 06:21:41;;;;;;;4.2;2.7;;;;;;;-0.61;83.95898;939.865;;;;
2021/02/18 06:24:19;;;;;;;2.4;1.6;;;;;;;-0.61;84.02539;939.9023;;;;
2021/02/18 06:26:58;;;;;;;4;2;;;;;;;-0.64;84.27637;939.866;;;;
2021/02/18 06:29:39;;;;;;;5.6;2.8;;;;;;;-0.68;84.31348;939.7933;;;;
2021/02/18 06:32:17;;;;;;;11;3.8;;;;;;;-0.62;83.88867;939.8589;;;;
2021/02/18 06:34:44;;;;;;;12.2;5.4;;;;;;;-0.67;83.94824;939.8345;;;;
2021/02/18 06:37:23;;;;;;;6.3;3.3;;;;;;;-0.56;84.07031;939.8696;;;;
2021/02/18 06:39:48;;;;;;;8.4;3.7;;;;;;;;;;;;;
2021/02/18 06:42:13;;;;;;;6.7;2.6;;;;;;;;;;;;;
2021/02/18 06:44:40;;;;;;;11.9;3.2;;;;;;;;;;;;;
2021/02/18 06:47:09;;;;;;;9.7;3.9;;;;;;;;;;;;;
2021/02/18 06:49:38;;;;;;;7.5;4.5;;;;;;;;;;;;;
2021/02/18 06:52:03;;;;;;;10.8;4;;;;;;;;;;;;;
2021/02/18 06:54:31;;;;;;;9.6;3.6;;;;;;;;;;;;;
2021/02/18 06:56:56;;;;;;;3.5;1.9;;;;;;;;;;;;;
2021/02/18 06:59:25;;;;;;;4.5;2.1;;;;;;;;;;;;;
2021/02/18 07:01:50;;;;;;;2.9;1.7;;;;;;;;;;;;;
2021/02/18 07:04:17;;;;;;;12;1.4;;;;;;;;;;;;;
2021/02/18 07:06:49;;;;;;;14;6.2;;;;;;;;;;;;;
2021/02/18 07:09:18;;;;;;;12.9;4.4;;;;;;;;;;;;;
2021/02/18 07:11:49;;;;;;;4.4;2.7;;;;;;;;;;;;;
2021/02/18 07:14:22;;;;;;;2.6;1.8;;;;;;;;;;;;;
2021/02/18 07:16:48;;;;;;;5;2.1;;;;;;;;;;;;;
2021/02/18 07:19:13;;;;;;;5.4;2;;;;;;;;;;;;;
2021/02/18 07:21:44;;;;;;;8.5;2.7;;;;;;;;;;;;;
2021/02/18 07:24:13;;;;;;;5.7;2.4;;;;;;;;;;;;;
2021/02/18 07:26:43;;;;;;;3.7;2.4;;;;;;;;;;;;;
2021/02/18 07:29:15;;;;;;;3.6;2.3;;;;;;;;;;;;;
2021/02/18 07:31:40;;;;;;;5.3;1.5;;;;;;;;;;;;;
2021/02/18 07:34:07;;;;;;;2.6;1.5;;;;;;;;;;;;;
2021/02/18 07:36:34;;;;;;;2.4;1.6;;;;;;;;;;;;;
2021/02/18 07:38:59;;;;;;;4.8;2.6;;;;;;;;;;;;;
2021/02/18 07:41:24;;;;;;;3.7;2.2;;;;;;;;;;;;;
2021/02/18 07:43:56;;;;;;;5;2.1;;;;;;;;;;;;;
2021/02/18 07:46:29;;;;;;;4.5;2.2;;;;;;;;;;;;;
2021/02/18 07:49:02;;;;;;;3.7;2.2;;;;;;;;;;;;;
2021/02/18 07:51:24;;;;;;;3.5;2.1;;;;;;;;;;;;;
2021/02/18 07:53:50;;;;;;;2.3;1.4;;;;;;;;;;;;;
2021/02/18 07:56:15;;;;;;;4.2;1.8;;;;;;;;;;;;;
2021/02/18 07:58:40;;;;;;;3;1.9;;;;;;;;;;;;;
2021/02/18 08:01:12;;;;;;;2.4;1.5;;;;;;;;;;;;;
2021/02/18 08:03:37;;;;;;;2.4;1.6;;;;;;;;;;;;;
2021/02/18 08:06:07;;;;;;;3.1;1.3;;;;;;;;;;;;;
2021/02/18 08:08:32;;;;;;;1.4;1.1;;;;;;;;;;;;;
2021/02/18 08:11:01;;;;;;;2;1.4;;;;;;;;;;;;;
2021/02/18 08:13:24;;;;;;;1.9;1.2;;;;;;;;;;;;;
2021/02/18 08:15:59;;;;;;;3;1.3;;;;;;;;;;;;;
2021/02/18 08:18:26;;;;;;;2.3;1.6;;;;;;;;;;;;;
2021/02/18 08:20:57;;;;;;;2.6;1.5;;;;;;;;;;;;;
2021/02/18 08:23:28;;;;;;;1;0.7;;;;;;;;;;;;;
2021/02/18 08:25:57;;;;;;;4.8;1.9;;;;;;;;;;;;;
2021/02/18 08:28:27;;;;;;;1.1;0.9;;;;;;;;;;;;;
2021/02/18 08:30:52;;;;;;;0.7;0.7;;;;;;;;;;;;;
2021/02/18 08:33:19;;;;;;;2;0.8;;;;;;;;;;;;;
2021/02/18 08:35:45;;;;;;;0.9;0.5;;;;;;;;;;;;;
2021/02/18 08:38:10;;;;;;;0.2;0.2;;;;;;;;;;;;;
2021/02/18 08:40:40;;;;;;;1;0.5;;;;;;;;;;;;;
2021/02/18 08:43:09;;;;;;;6.2;1.7;;;;;;;;;;;;;
2021/02/18 08:45:34;;;;;;;0.4;0.4;;;;;;;;;;;;;
2021/02/18 08:48:01;;;;;;;7.6;1.1;;;;;;;;;;;;;
2021/02/18 08:50:28;;;;;;;2.5;1.3;;;;;;;;;;;;;
2021/02/18 08:52:57;;;;;;;1.1;0.6;;;;;;;;;;;;;
2021/02/18 08:55:23;;;;;;;1.3;0.4;;;;;;;;;;;;;
2021/02/18 08:57:50;;;;;;;0.5;0.4;;;;;;;;;;;;;
2021/02/18 09:00:15;;;;;;;2.1;0.6;;;;;;;;;;;;;
2021/02/18 09:02:46;;;;;;;4;1.3;;;;;;;;;;;;;
2021/02/18 09:05:18;;;;;;;1.6;0.8;;;;;;;;;;;;;
2021/02/18 09:07:48;;;;;;;8.8;1.6;;;;;;;;;;;;;
2021/02/18 09:10:21;;;;;;;10.1;1.9;;;;;;;;;;;;;
2021/02/18 09:12:46;;;;;;;1.9;1.1;;;;;;;;;;;;;
2021/02/18 09:15:14;;;;;;;3.3;1.2;;;;;;;;;;;;;
2021/02/18 09:17:40;;;;;;;0.7;0.5;;;;;;;;;;;;;
2021/02/18 09:20:07;;;;;;;2.3;0.8;;;;;;;;;;;;;
2021/02/18 09:22:33;;;;;;;0.2;0.1;;;;;;;;;;;;;
2021/02/18 09:25:03;;;;;;;1.5;0.4;;;;;;;;;;;;;
2021/02/18 09:27:29;;;;;;;0.9;0.5;;;;;;;;;;;;;
2021/02/18 09:29:56;;;;;;;1.4;0.5;;;;;;;;;;;;;
2021/02/18 09:32:21;;;;;;;5.7;0.5;;;;;;;;;;;;;
2021/02/18 09:34:50;;;;;;;7.4;0.7;;;;;;;;;;;;;
2021/02/18 09:37:15;;;;;;;0.4;0.4;;;;;;;;;;;;;
2021/02/18 09:39:41;;;;;;;2.2;1.1;;;;;;;;;;;;;
2021/02/18 09:42:09;;;;;;;3;0.9;;;;;;;;;;;;;
2021/02/18 09:44:40;;;;;;;2.2;0.9;;;;;;;;;;;;;
2021/02/18 09:47:10;;;;;;;3.3;1.4;;;;;;;;;;;;;
2021/02/18 09:49:35;;;;;;;4.1;1.2;;;;;;;;;;;;;
2021/02/18 09:52:02;;;;;;;3.4;1;;;;;;;;;;;;;
2021/02/18 09:54:27;;;;;;;3.2;0.8;;;;;;;;;;;;;
2021/02/18 09:56:52;;;;;;;2;0.7;;;;;;;;;;;;;
2021/02/18 09:59:17;;;;;;;0.7;0.4;;;;;;;;;;;;;
2021/02/18 10:01:43;;;;;;;2;0.8;;;;;;;;;;;;;
2021/02/18 10:04:08;;;;;;;0.6;0.6;;;;;;;;;;;;;
2021/02/18 10:06:35;;;;;;;0.6;0.3;;;;;;;;;;;;;
2021/02/18 10:09:02;;;;;;;0.5;0.3;;;;;;;;;;;;;
2021/02/18 10:11:29;;;;;;;0.4;0.4;;;;;;;;;;;;;
2021/02/18 10:13:59;;;;;;;0.7;0.2;;;;;;;;;;;;;
2021/02/18 10:16:27;;;;;;;0.7;0.2;;;;;;;;;;;;;
2021/02/18 10:18:54;;;;;;;0.2;0.2;;;;;;;;;;;;;
2021/02/18 10:21:20;;;;;;;0.4;0.2;;;;;;;;;;;;;
2021/02/18 10:23:45;;;;;;;12.4;1.3;;;;;;;;;;;;;
2021/02/18 10:26:10;;;;;;;0.6;0.4;;;;;;;;;;;;;
2021/02/18 10:28:35;;;;;;;1.7;0.5;;;;;;;;;;;;;
2021/02/18 10:31:01;;;;;;;0.8;0.2;;;;;;;;;;;;;
2021/02/18 10:33:26;;;;;;;13.5;0.4;;;;;;;;;;;;;
2021/02/18 10:35:52;;;;;;;0.1;0.1;;;;;;;;;;;;;
2021/02/18 10:38:18;;;;;;;0.2;0.2;;;;;;;;;;;;;
2021/02/18 10:40:44;;;;;;;3.7;0.5;;;;;;;;;;;;;
2021/02/18 10:43:09;;;;;;;0.3;0.3;;;;;;;;;;;;;
2021/02/18 10:45:35;;;;;;;0.4;0.3;;;;;;;;;;;;;
2021/02/18 10:48:01;;;;;;;0.8;0.6;;;;;;;;;;;;;
2021/02/18 10:50:27;;;;;;;0.5;0.2;;;;;;;;;;;;;
2021/02/18 10:52:52;;;;;;;0.4;0.1;;;;;;;;;;;;;
2021/02/18 10:55:17;;;;;;;0.4;0.3;;;;;;;;;;;;;
2021/02/18 10:57:42;;;;;;;0.7;0.3;;;;;;;;;;;;;
2021/02/18 11:00:15;;;;;;;1.2;0.1;;;;;;;;;;;;;
2021/02/18 11:02:41;;;;;;;0.7;0.4;;;;;;;;;;;;;
2021/02/18 11:05:06;;;;;;;0.8;0.4;;;;;;;;;;;;;
2021/02/18 11:07:31;;;;;;;1.6;0.3;;;;;;;;;;;;;
2021/02/18 11:09:56;;;;;;;0.6;0.2;;;;;;;;;;;;;
2021/02/18 11:12:21;;;;;;;0.3;0.1;;;;;;;;;;;;;
2021/02/18 11:14:47;;;;;;;0.3;0.2;;;;;;;;;;;;;
2021/02/18 11:17:18;;;;;;;0.3;0.3;;;;;;;;;;;;;
2021/02/18 11:19:47;;;;;;;2;0.9;;;;;;;;;;;;;
2021/02/18 11:22:12;;;;;;;0.6;0.1;;;;;;;;;;;;;
2021/02/18 11:24:38;;;;;;;0.4;0.2;;;;;;;;;;;;;
2021/02/18 11:27:03;;;;;;;0.6;0.4;;;;;;;;;;;;;
2021/02/18 11:29:29;;;;;;;0;0;;;;;;;;;;;;;
2021/02/18 11:31:54;;;;;;;2.3;0.6;;;;;;;;;;;;;
2021/02/18 11:34:19;;;;;;;0.1;0.1;;;;;;;;;;;;;
2021/02/18 11:36:44;;;;;;;0.3;0;;;;;;;;;;;;;
2021/02/18 11:39:12;;;;;;;0;0;;;;;;;;;;;;;
2021/02/18 11:41:37;;;;;;;0;0;;;;;;;;;;;;;
2021/02/18 11:44:03;;;;;;;0;0;;;;;;;;;;;;;
2021/02/18 11:46:29;;;;;;;0;0;;;;;;;;;;;;;
2021/02/18 11:48:54;;;;;;;0;0;;;;;;;;;;;;;
2021/02/18 11:51:19;;;;;;;0;0;;;;;;;;;;;;;
2021/02/18 11:53:45;;;;;;;0.1;0.1;;;;;;;;;;;;;
2021/02/18 11:56:10;;;;;;;0;0;;;;;;;;;;;;;
2021/02/18 11:58:36;;;;;;;0;0;;;;;;;;;;;;;
2021/02/18 12:01:01;;;;;;;0.2;0.2;;;;;;;;;;;;;
2021/02/18 12:03:27;;;;;;;0.8;0.2;;;;;;;;;;;;;
2021/02/18 12:05:52;;;;;;;1.8;0.1;;;;;;;;;;;;;
2021/02/18 12:08:19;;;;;;;0.5;0.2;;;;;;;;;;;;;
2021/02/18 12:10:44;;;;;;;0;0;;;;;;;;;;;;;
2021/02/18 12:13:09;;;;;;;0.1;0.1;;;;;;;;;;;;;
2021/02/18 12:15:35;;;;;;;0.2;0.1;;;;;;;;;;;;;
2021/02/18 12:18:01;;;;;;;0.4;0;;;;;;;;;;;;;
2021/02/18 12:20:26;;;;;;;0;0;;;;;;;;;;;;;
2021/02/18 12:22:52;;;;;;;0.4;0.2;;;;;;;;;;;;;
2021/02/18 12:25:17;;;;;;;0;0;;;;;;;;;;;;;
2021/02/18 12:27:44;;;;;;;0.4;0;;;;;;;;;;;;;
2021/02/18 12:30:09;;;;;;;0.4;0.2;;;;;;;;;;;;;
2021/02/18 12:32:34;;;;;;;0;0;;;;;;;;;;;;;
2021/02/18 12:35:00;;;;;;;0.1;0.1;;;;;;;;;;;;;
2021/02/18 12:37:26;;;;;;;0;0;;;;;;;;;;;;;
2021/02/18 12:39:51;;;;;;;0.4;0.2;;;;;;;;;;;;;
2021/02/18 12:42:17;;;;;;;0.2;0.1;;;;;;;;;;;;;
2021/02/18 12:44:42;;;;;;;0;0;;;;;;;;;;;;;
2021/02/18 12:47:08;;;;;;;0.4;0.1;;;;;;;;;;;;;
2021/02/18 12:49:33;;;;;;;0.1;0.1;;;;;;;;;;;;;
2021/02/18 12:51:59;;;;;;;0;0;;;;;;;;;;;;;
2021/02/18 12:54:24;;;;;;;0.1;0;;;;;;;;;;;;;
2021/02/18 12:56:50;;;;;;;0;0;;;;;;;;;;;;;
2021/02/18 12:59:16;;;;;;;0;0;;;;;;;;;;;;;
2021/02/18 13:01:41;;;;;;;0.1;0.1;;;;;;;;;;;;;
2021/02/18 13:04:06;;;;;;;0.5;0;;;;;;;;;;;;;
2021/02/18 13:06:33;;;;;;;0.4;0.2;;;;;;;;;;;;;
2021/02/18 13:08:58;;;;;;;0;0;;;;;;;;;;;;;
2021/02/18 13:11:24;;;;;;;0.2;0.2;;;;;;;;;;;;;
2021/02/18 13:13:49;;;;;;;0.3;0.2;;;;;;;;;;;;;
2021/02/18 13:16:17;;;;;;;1.4;0.1;;;;;;;;;;;;;
2021/02/18 13:18:42;;;;;;;0;0;;;;;;;;;;;;;
2021/02/18 13:21:07;;;;;;;0.1;0.1;;;;;;;;;;;;;
2021/02/18 13:23:33;;;;;;;0;0;;;;;;;;;;;;;
2021/02/18 13:25:58;;;;;;;0;0;;;;;;;;;;;;;
2021/02/18 13:28:24;;;;;;;0.2;0.1;;;;;;;;;;;;;
2021/02/18 13:30:51;;;;;;;0.1;0.1;;;;;;;;;;;;;
2021/02/18 13:33:16;;;;;;;0.1;0.1;;;;;;;;;;;;;
2021/02/18 13:35:41;;;;;;;4.1;0.3;;;;;;;;;;;;;
2021/02/18 13:38:06;;;;;;;0.2;0.1;;;;;;;;;;;;;
2021/02/18 13:40:33;;;;;;;1;0.1;;;;;;;;;;;;;
2021/02/18 13:42:58;;;;;;;0.1;0.1;;;;;;;;;;;;;
2021/02/18 13:45:24;;;;;;;0;0;;;;;;;;;;;;;
2021/02/18 13:47:49;;;;;;;1.1;0.3;;;;;;;;;;;;;
2021/02/18 13:50:14;;;;;;;0.5;0.1;;;;;;;;;;;;;
2021/02/18 13:52:39;;;;;;;0.1;0.1;;;;;;;;;;;;;
2021/02/18 13:55:08;;;;;;;0.2;0.1;;;;;;;;;;;;;
2021/02/18 13:57:34;;;;;;;1.6;0.3;;;;;;;;;;;;;
2021/02/18 13:59:59;;;;;;;0.1;0.1;;;;;;;;;;;;;
2021/02/18 14:02:24;;;;;;;0;0;;;;;;;;;;;;;
2021/02/18 14:04:51;;;;;;;0.6;0.2;;;;;;;;;;;;;
2021/02/18 14:07:16;;;;;;;0.2;0.1;;;;;;;;;;;;;
2021/02/18 14:09:41;;;;;;;0.1;0.1;;;;;;;;;;;;;
2021/02/18 14:12:06;;;;;;;0.6;0.1;;;;;;;;;;;;;
2021/02/18 14:14:32;;;;;;;0.1;0.1;;;;;;;;;;;;;
2021/02/18 14:16:58;;;;;;;0.3;0.2;;;;;;;;;;;;;
2021/02/18 14:19:26;;;;;;;4.6;0.3;;;;;;;;;;;;;
2021/02/18 14:21:48;;;;;;;0;0;;;;;;;;;;;;;
2021/02/18 14:24:15;;;;;;;0;0;;;;;;;;;;;;;
2021/02/18 14:26:40;;;;;;;0.2;0.2;;;;;;;;;;;;;
2021/02/18 14:29:06;;;;;;;0.2;0.2;;;;;;;;;;;;;
2021/02/18 14:31:31;;;;;;;0.1;0.1;;;;;;;;;;;;;
2021/02/18 14:33:57;;;;;;;0.6;0.1;;;;;;;;;;;;;
2021/02/18 14:36:22;;;;;;;0.9;0.3;;;;;;;;;;;;;
2021/02/18 14:38:48;;;;;;;0.5;0.2;;;;;;;;;;;;;
2021/02/18 14:41:13;;;;;;;0.6;0.4;;;;;;;;;;;;;
2021/02/18 14:43:39;;;;;;;1.2;0.5;;;;;;;;;;;;;
2021/02/18 14:46:05;;;;;;;0.5;0.3;;;;;;;;;;;;;
2021/02/18 14:48:30;;;;;;;0.2;0.2;;;;;;;;;;;;;
2021/02/18 14:50:56;;;;;;;3.1;0.6;;;;;;;;;;;;;
2021/02/18 14:53:21;;;;;;;0.2;0.2;;;;;;;;;;;;;
2021/02/18 14:55:47;;;;;;;0.9;0.4;;;;;;;;;;;;;
2021/02/18 14:58:14;;;;;;;0.5;0.2;;;;;;;;;;;;;
2021/02/18 15:00:38;;;;;;;0.1;0.1;;;;;;;;;;;;;
2021/02/18 15:03:05;;;;;;;0.9;0.3;;;;;;;;;;;;;
2021/02/18 15:05:30;;;;;;;0.1;0.1;;;;;;;;;;;;;
2021/02/18 15:07:55;;;;;;;0.7;0.2;;;;;;;;;;;;;
2021/02/18 15:10:21;;;;;;;0.9;0.5;;;;;;;;;;;;;
2021/02/18 15:12:47;;;;;;;12.3;0.5;;;;;;;;;;;;;
2021/02/18 15:15:12;;;;;;;1.8;0.6;;;;;;;;;;;;;
2021/02/18 15:17:39;;;;;;;1.1;0.5;;;;;;;;;;;;;
2021/02/18 15:20:03;;;;;;;0.5;0.4;;;;;;;;;;;;;
2021/02/18 15:22:31;;;;;;;1.4;0.6;;;;;;;;;;;;;
2021/02/18 15:24:56;;;;;;;1.2;0.6;;;;;;;;;;;;;
2021/02/18 15:27:22;;;;;;;0.4;0.2;;;;;;;;;;;;;
2021/02/18 15:29:47;;;;;;;0.3;0.2;;;;;;;;;;;;;
2021/02/18 15:32:13;;;;;;;0.5;0.4;;;;;;;;;;;;;
2021/02/18 15:34:38;;;;;;;0.1;0.1;;;;;;;;;;;;;
2021/02/18 15:37:05;;;;;;;4.9;0.3;;;;;;;;;;;;;
2021/02/18 15:39:31;;;;;;;3.1;1;;;;;;;;;;;;;
2021/02/18 15:42:01;;;;;;;7.2;1.6;;;;;;;;;;;;;
2021/02/18 15:44:27;;;;;;;9.6;2;;;;;;;;;;;;;
2021/02/18 15:46:52;;;;;;;5.9;1.3;;;;;;;;;;;;;
2021/02/18 15:49:17;;;;;;;13.5;1.4;;;;;;;;;;;;;
2021/02/18 15:51:42;;;;;;;10.8;1.1;;;;;;;;;;;;;
2021/02/18 15:54:08;;;;;;;4.5;1;;;;;;;;;;;;;
2021/02/18 15:56:33;;;;;;;3.7;1.5;;;;;;;;;;;;;
2021/02/18 15:59:00;;;;;;;6.7;1.6;;;;;;;;;;;;;
2021/02/18 16:01:25;;;;;;;8.3;1.4;;;;;;;;;;;;;
2021/02/18 16:03:51;;;;;;;8;0.8;;;;;;;;;;;;;
2021/02/18 16:06:16;;;;;;;3.8;1.2;;;;;;;;;;;;;
2021/02/18 16:08:43;;;;;;;0.9;0.8;;;;;;;;;;;;;
2021/02/18 16:11:08;;;;;;;0.9;0.8;;;;;;;;;;;;;
2021/02/18 16:13:34;;;;;;;1.1;0.8;;;;;;;;;;;;;
2021/02/18 16:16:01;;;;;;;1;0.6;;;;;;;;;;;;;
2021/02/18 16:18:28;;;;;;;2.6;1;;;;;;;;;;;;;
2021/02/18 16:20:52;;;;;;;5.7;1.3;;;;;;;;;;;;;
2021/02/18 16:23:18;;;;;;;2.6;1.4;;;;;;;;;;;;;
2021/02/18 16:25:43;;;;;;;4.8;1.5;;;;;;;;;;;;;
2021/02/18 16:28:08;;;;;;;2.6;1;;;;;;;;;;;;;
2021/02/18 16:30:34;;;;;;;10.8;1.7;;;;;;;;;;;;;
2021/02/18 16:32:59;;;;;;;3;1.3;;;;;;;;;;;;;
2021/02/18 16:35:24;;;;;;;3.1;1.7;;;;;;;;;;;;;
2021/02/18 16:37:50;;;;;;;6.3;2.3;;;;;;;;;;;;;
2021/02/18 16:40:15;;;;;;;5.4;3.1;;;;;;;;;;;;;
2021/02/18 16:42:42;;;;;;;8.5;4.1;;;;;;;;;;;;;
2021/02/18 16:45:07;;;;;;;11.8;3.9;;;;;;;;;;;;;
2021/02/18 16:47:32;;;;;;;3.8;2.9;;;;;;;;;;;;;
2021/02/18 16:49:57;;;;;;;5.3;2;;;;;;;;;;;;;
2021/02/18 16:52:24;;;;;;;1.5;1.2;;;;;;;;;;;;;
2021/02/18 16:54:49;;;;;;;5;2.6;;;;;;;;;;;;;
2021/02/18 16:57:16;;;;;;;2;1.4;;;;;;;;;;;;;
2021/02/18 16:59:42;;;;;;;3.6;1.8;;;;;;;;;;;;;
2021/02/18 17:02:07;;;;;;;2.2;1.5;;;;;;;;;;;;;
2021/02/18 17:04:34;;;;;;;1.1;0.9;;;;;;;;;;;;;
2021/02/18 17:06:59;;;;;;;3.3;1.6;;;;;;;;;;;;;
2021/02/18 17:09:24;;;;;;;2.1;1.2;;;;;;;;;;;;;
2021/02/18 17:11:50;;;;;;;4.6;1.4;;;;;;;;;;;;;
2021/02/18 17:14:15;;;;;;;12.8;1.1;;;;;;;;;;;;;
2021/02/18 17:16:46;;;;;;;1.6;1.1;;;;;;;;;;;;;
2021/02/18 17:19:14;;;;;;;4.7;2.1;;;;;;;;;;;;;
2021/02/18 17:21:38;;;;;;;1.9;1.4;;;;;;;;;;;;;
2021/02/18 17:24:04;;;;;;;4.2;2;;;;;;;;;;;;;
2021/02/18 17:26:29;;;;;;;2.6;1.6;;;;;;;;;;;;;
2021/02/18 17:28:56;;;;;;;3.6;2.4;;;;;;;;;;;;;
2021/02/18 17:31:20;;;;;;;4.9;2.5;;;;;;;;;;;;;
2021/02/18 17:33:45;;;;;;;4.8;2.8;;;;;;;;;;;;;
2021/02/18 17:36:11;;;;;;;8.2;3;;;;;;;;;;;;;
2021/02/18 17:38:36;;;;;;;5.5;3.2;;;;;;;;;;;;;
2021/02/18 17:41:02;;;;;;;8.6;2.2;;;;;;;;;;;;;
2021/02/18 17:43:27;;;;;;;7;3.5;;;;;;;;;;;;;
2021/02/18 17:45:52;;;;;;;2.8;2.4;;;;;;;;;;;;;
2021/02/18 17:48:19;;;;;;;9.4;3.9;;;;;;;;;;;;;
2021/02/18 17:50:44;;;;;;;5.1;2.6;;;;;;;;;;;;;
2021/02/18 17:53:10;;;;;;;4.3;2.4;;;;;;;;;;;;;
2021/02/18 17:55:35;;;;;;;8.6;2.9;;;;;;;;;;;;;
2021/02/18 17:58:02;;;;;;;11;3;;;;;;;;;;;;;
2021/02/18 18:00:27;;;;;;;5.2;2.7;;;;;;;;;;;;;
2021/02/18 18:02:53;;;;;;;4.6;2.7;;;;;;;;;;;;;
2021/02/18 18:05:18;;;;;;;3.7;2.1;;;;;;;;;;;;;
2021/02/18 18:07:44;;;;;;;4.6;2;;;;;;;;;;;;;
2021/02/18 18:10:09;;;;;;;6.4;3;;;;;;;;;;;;;
2021/02/18 18:12:35;;;;;;;16.5;2.8;;;;;;;;;;;;;
2021/02/18 18:15:01;;;;;;;4.1;2.3;;;;;;;;;;;;;
2021/02/18 18:17:26;;;;;;;4;2.3;;;;;;;;;;;;;
2021/02/18 18:19:51;;;;;;;3.5;2.4;;;;;;;;;;;;;
2021/02/18 18:22:17;;;;;;;4.6;3;;;;;;;;;;;;;
2021/02/18 18:24:42;;;;;;;6.3;3.5;;;;;;;;;;;;;
2021/02/18 18:27:09;;;;;;;5.3;3.3;;;;;;;;;;;;;
2021/02/18 18:29:34;;;;;;;4.4;3.1;;;;;;;;;;;;;
2021/02/18 18:32:00;;;;;;;4.6;2.9;;;;;;;;;;;;;
2021/02/18 18:34:25;;;;;;;8.2;3.6;;;;;;;;;;;;;
2021/02/18 18:36:51;;;;;;;8.4;3.5;;;;;;;;;;;;;
2021/02/18 18:39:17;;;;;;;11.3;4.2;;;;;;;;;;;;;
2021/02/18 18:41:43;;;;;;;6.5;4.5;;;;;;;;;;;;;
2021/02/18 18:44:08;;;;;;;7.7;4.6;;;;;;;;;;;;;
2021/02/18 18:46:34;;;;;;;6.1;3.9;;;;;;;;;;;;;
2021/02/18 18:48:59;;;;;;;4.8;2.7;;;;;;;;;;;;;
2021/02/18 18:51:25;;;;;;;10.7;3;;;;;;;;;;;;;
2021/02/18 18:53:51;;;;;;;6.8;3;;;;;;;;;;;;;
2021/02/18 18:56:16;;;;;;;4.8;3;;;;;;;;;;;;;
2021/02/18 18:58:42;;;;;;;9;2.4;;;;;;;;;;;;;
2021/02/18 19:01:09;;;;;;;3.1;1.8;;;;;;;;;;;;;
2021/02/18 19:03:34;;;;;;;6.9;3.7;;;;;;;;;;;;;
2021/02/18 19:05:59;;;;;;;9.8;3.7;;;;;;;;;;;;;
2021/02/18 19:08:24;;;;;;;6;3.8;;;;;;;;;;;;;
2021/02/18 19:10:51;;;;;;;10.2;3.5;;;;;;;;;;;;;
2021/02/18 19:13:16;;;;;;;5.5;3.1;;;;;;;;;;;;;
2021/02/18 19:15:44;;;;;;;3.5;2.2;;;;;;;;;;;;;
2021/02/18 19:18:09;;;;;;;2.5;1.5;;;;;;;;;;;;;
2021/02/18 19:20:35;;;;;;;25.1;14.5;;;;;;;;;;;;;
2021/02/18 19:23:01;;;;;;;14.6;8.1;;;;;;;;;;;;;
2021/02/18 19:25:26;;;;;;;4.8;2.4;;;;;;;;;;;;;
2021/02/18 19:27:51;;;;;;;5.4;1.5;;;;;;;;;;;;;
2021/02/18 19:30:16;;;;;;;6.7;2.8;;;;;;;;;;;;;
2021/02/18 19:32:41;;;;;;;13.7;3.8;;;;;;;;;;;;;
2021/02/18 19:35:08;;;;;;;5.1;2.6;;;;;;;;;;;;;
2021/02/18 19:37:33;;;;;;;8.2;4.3;;;;;;;;;;;;;
2021/02/18 19:39:59;;;;;;;6.7;3.7;;;;;;;;;;;;;
2021/02/18 19:42:23;;;;;;;7;3.4;;;;;;;;;;;;;
2021/02/18 19:44:50;;;;;;;4.6;3.4;;;;;;;;;;;;;
2021/02/18 19:47:15;;;;;;;11.5;3.8;;;;;;;;;;;;;
2021/02/18 19:49:41;;;;;;;9.1;5.8;;;;;;;;;;;;;
2021/02/18 19:52:06;;;;;;;9.9;5.3;;;;;;;;;;;;;